Time;durP1;ratioP1;P1;durP2;ratioP2;P2;SDS_P1;SDS_P2;PMS_P1;PMS_P2;Temp;Humidity;BMP_temperature;BMP_pressure;BME280_temperature;BME280_humidity;BME280_pressure;Samples;Min_cycle;Max_cycle;Signal;HPM_P1;HPM_P2
2021/12/02 06:46:29;;;;;;;8.02;1.13;;;3.20;91.10;;;;;;5101011;27;20572;-63
2021/12/02 06:48:55;;;;;;;11.13;1.30;;;2.90;91.50;;;;;;5097742;28;20020;-63
2021/12/02 06:51:21;;;;;;;7.40;1.17;;;2.90;91.70;;;;;;5094911;28;20078;-64
2021/12/02 06:53:48;;;;;;;14.55;1.33;;;2.90;91.70;;;;;;5117850;27;20028;-64
2021/12/02 06:56:14;;;;;;;9.40;1.73;;;3.00;91.80;;;;;;5096959;28;20059;-64
2021/12/02 06:58:40;;;;;;;6.50;1.02;;;3.00;91.70;;;;;;5086873;28;20231;-65
2021/12/02 07:01:06;;;;;;;5.82;1.20;;;3.10;91.60;;;;;;5098711;28;20121;-64
2021/12/02 07:03:31;;;;;;;8.35;1.15;;;3.10;91.60;;;;;;5101595;28;20430;-64
2021/12/02 07:05:57;;;;;;;8.95;1.23;;;3.20;91.50;;;;;;5102125;28;20039;-64
2021/12/02 07:08:23;;;;;;;5.35;0.90;;;3.20;91.40;;;;;;5102408;28;20485;-64
2021/12/02 07:10:50;;;;;;;6.70;1.30;;;3.20;91.20;;;;;;5104897;28;20023;-64
2021/12/02 07:13:16;;;;;;;9.40;1.30;;;3.20;91.20;;;;;;5103709;27;20055;-64
2021/12/02 07:16:00;;;;;;;10.35;1.73;;;3.20;91.10;;;;;;5096717;28;20052;-64
2021/12/02 07:18:26;;;;;;;7.85;1.58;;;3.30;91.00;;;;;;5106956;28;20027;-64
2021/12/02 07:20:52;;;;;;;7.88;1.70;;;3.30;90.90;;;;;;5089759;28;20028;-64
2021/12/02 07:23:20;;;;;;;14.68;1.95;;;3.30;90.80;;;;;;5093970;28;20483;-64
2021/12/02 07:25:48;;;;;;;6.53;1.55;;;3.30;90.70;;;;;;5102358;28;20489;-64
2021/12/02 07:28:15;;;;;;;7.63;1.70;;;3.30;90.60;;;;;;5104608;28;20387;-64
2021/12/02 07:30:41;;;;;;;5.78;1.20;;;3.30;90.50;;;;;;5097311;28;20082;-64
2021/12/02 07:33:12;;;;;;;6.15;1.38;;;3.30;90.40;;;;;;5096911;28;20069;-64
2021/12/02 07:35:38;;;;;;;;;;;3.30;90.40;;;;;;5108406;28;20902;-65
2021/12/02 07:38:04;;;;;;;9.43;2.03;;;3.30;90.30;;;;;;5097768;28;19995;-64
2021/12/02 07:40:37;;;;;;;11.65;2.63;;;3.20;90.30;;;;;;5098768;28;20026;-64
2021/12/02 07:43:04;;;;;;;10.48;2.30;;;3.20;90.30;;;;;;5097704;28;20447;-65
2021/12/02 07:45:35;;;;;;;8.50;1.98;;;3.20;90.20;;;;;;5092497;28;20762;-65
2021/12/02 07:48:00;;;;;;;;;;;3.30;90.10;;;;;;5100524;28;20028;-65
2021/12/02 07:50:27;;;;;;;5.25;1.30;;;3.30;90.10;;;;;;5103746;28;19969;-65
2021/12/02 07:53:00;;;;;;;9.32;1.90;;;3.30;90.00;;;;;;5100284;28;20051;-65
2021/12/02 07:55:26;;;;;;;5.18;1.50;;;3.30;89.80;;;;;;5101920;28;20098;-65
2021/12/02 07:57:53;;;;;;;10.52;1.77;;;3.40;89.50;;;;;;5084504;28;20025;-65
2021/12/02 08:00:22;;;;;;;7.28;2.03;;;3.40;89.30;;;;;;5078554;28;20050;-65
2021/12/02 08:02:50;;;;;;;6.05;1.70;;;3.50;89.10;;;;;;5078234;28;20024;-65
2021/12/02 08:05:17;;;;;;;10.52;2.03;;;3.60;89.60;;;;;;5083768;28;20032;-65
2021/12/02 08:07:44;;;;;;;7.60;2.53;;;3.70;88.10;;;;;;5083627;28;20032;-65
2021/12/02 08:10:12;;;;;;;10.95;2.42;;;3.90;87.60;;;;;;5082147;28;20029;-65
2021/12/02 08:12:40;;;;;;;8.35;2.08;;;4.20;86.90;;;;;;5085701;28;20107;-65
2021/12/02 08:15:08;;;;;;;11.50;2.10;;;4.70;85.60;;;;;;5090231;28;20031;-66
2021/12/02 08:17:34;;;;;;;10.43;2.13;;;5.40;84.20;;;;;;5075898;28;20016;-66
2021/12/02 08:20:00;;;;;;;9.20;2.33;;;6.40;82.10;;;;;;5088592;28;20032;-66
2021/12/02 08:22:26;;;;;;;6.97;2.30;;;7.20;79.70;;;;;;5091957;28;20023;-66
2021/12/02 08:24:52;;;;;;;6.93;2.17;;;8.00;77.40;;;;;;5089720;28;20055;-66
2021/12/02 08:27:18;;;;;;;5.75;2.20;;;8.70;75.40;;;;;;5100186;28;20020;-66
2021/12/02 08:29:44;;;;;;;7.50;2.35;;;9.50;73.00;;;;;;5084770;28;20086;-65
2021/12/02 08:32:10;;;;;;;12.15;6.82;;;10.20;71.00;;;;;;5090172;28;20036;-65
2021/12/02 08:34:36;;;;;;;11.50;5.20;;;10.90;68.80;;;;;;5086637;28;20077;-65
2021/12/02 08:37:02;;;;;;;6.88;3.35;;;11.50;66.70;;;;;;5087983;28;20020;-66
2021/12/02 08:39:29;;;;;;;12.27;3.10;;;12.10;64.90;;;;;;5085971;28;22736;-65
2021/12/02 08:41:56;;;;;;;10.00;3.10;;;12.70;62.80;;;;;;5095505;28;20039;-66
2021/12/02 08:44:24;;;;;;;9.55;2.90;;;13.30;61.30;;;;;;5090515;28;20048;-66
2021/12/02 08:46:51;;;;;;;10.07;3.00;;;13.90;59.50;;;;;;5092733;28;20077;-65
2021/12/02 08:49:18;;;;;;;8.10;2.78;;;14.10;58.60;;;;;;5087772;28;20064;-66
2021/12/02 08:51:45;;;;;;;10.20;2.58;;;14.10;58.00;;;;;;5086750;28;20058;-66
2021/12/02 08:54:12;;;;;;;10.75;3.60;;;13.50;58.60;;;;;;5088921;28;20042;-65
2021/12/02 08:56:38;;;;;;;13.15;3.90;;;12.70;60.10;;;;;;5090342;28;20073;-65
2021/12/02 08:59:04;;;;;;;13.30;3.83;;;12.00;61.80;;;;;;5093628;28;20020;-65
2021/12/02 09:01:30;;;;;;;13.50;4.80;;;11.40;63.00;;;;;;5085080;28;20047;-65
2021/12/02 09:03:56;;;;;;;12.25;3.50;;;10.90;63.90;;;;;;5092730;28;20482;-65
2021/12/02 09:06:23;;;;;;;13.00;3.95;;;10.50;65.00;;;;;;5095083;28;20042;-65
2021/12/02 09:08:51;;;;;;;10.48;3.30;;;10.10;65.80;;;;;;5089186;28;20043;-65
2021/12/02 09:11:17;;;;;;;10.50;3.30;;;9.70;66.70;;;;;;5077912;28;20047;-64
2021/12/02 09:13:43;;;;;;;13.88;3.78;;;9.40;67.60;;;;;;5085480;28;20020;-64
2021/12/02 09:16:09;;;;;;;11.43;3.72;;;9.20;68.40;;;;;;5087886;28;20050;-64
2021/12/02 09:18:34;;;;;;;11.25;4.05;;;8.90;69.00;;;;;;5087734;28;20406;-64
2021/12/02 09:21:00;;;;;;;12.90;5.00;;;8.80;69.80;;;;;;5090098;28;20165;-65
2021/12/02 09:23:26;;;;;;;12.27;4.60;;;8.60;70.40;;;;;;5079371;28;20031;-65
2021/12/02 09:25:53;;;;;;;15.63;5.10;;;8.40;70.80;;;;;;5085895;28;20032;-64
2021/12/02 09:28:19;;;;;;;14.98;4.70;;;8.30;71.30;;;;;;5087537;28;20024;-64
2021/12/02 09:30:45;;;;;;;16.48;5.35;;;8.30;71.70;;;;;;5088755;28;20414;-65
2021/12/02 09:33:11;;;;;;;15.40;5.07;;;8.30;72.00;;;;;;5093899;28;20540;-65
2021/12/02 09:35:37;;;;;;;13.55;4.80;;;8.30;71.90;;;;;;5092676;28;20032;-65
2021/12/02 09:38:06;;;;;;;10.70;4.93;;;8.50;71.80;;;;;;5107774;28;20020;-65
2021/12/02 09:40:32;;;;;;;16.20;5.07;;;8.60;71.60;;;;;;5084679;28;20308;-65
2021/12/02 09:42:58;;;;;;;16.77;4.90;;;8.60;71.70;;;;;;5080686;28;20013;-65
2021/12/02 09:45:23;;;;;;;11.57;5.18;;;8.70;71.90;;;;;;5075512;28;20060;-65
2021/12/02 09:47:50;;;;;;;16.02;5.03;;;8.70;71.90;;;;;;5087580;28;20387;-65
2021/12/02 09:50:36;;;;;;;13.40;4.60;;;8.70;72.00;;;;;;5073806;28;20032;-64
2021/12/02 09:53:16;;;;;;;13.10;5.07;;;8.60;72.10;;;;;;5087134;28;20046;-65
2021/12/02 09:55:55;;;;;;;13.68;5.22;;;8.70;72.00;;;;;;5086293;28;20048;-65
2021/12/02 09:58:24;;;;;;;11.48;5.10;;;8.80;71.90;;;;;;5077446;28;20111;-65
2021/12/02 10:01:07;;;;;;;12.38;5.10;;;9.50;70.50;;;;;;5080851;28;20036;-65
2021/12/02 10:03:35;;;;;;;30.67;12.63;;;10.10;69.10;;;;;;5075446;28;20035;-65
2021/12/02 10:06:07;;;;;;;15.27;5.47;;;10.40;68.40;;;;;;5074839;28;20031;-65
2021/12/02 10:08:42;;;;;;;12.65;4.60;;;10.40;68.40;;;;;;5071404;28;20028;-65
2021/12/02 10:11:13;;;;;;;15.77;4.95;;;10.40;68.60;;;;;;5087475;28;20078;-65
2021/12/02 10:16:31;;;;;;;13.13;5.60;;;11.30;66.50;;;;;;5078688;28;20151;-65
2021/12/02 10:21:39;;;;;;;13.60;4.78;;;11.60;65.40;;;;;;5077659;28;20024;-65
2021/12/02 10:24:10;;;;;;;14.75;4.60;;;11.20;66.50;;;;;;5086911;28;20024;-65
2021/12/02 10:26:40;;;;;;;12.82;4.97;;;11.00;67.40;;;;;;5071614;28;20020;-65
2021/12/02 10:29:21;;;;;;;17.70;6.40;;;10.90;68.10;;;;;;5086604;28;20034;-65
2021/12/02 10:32:03;;;;;;;12.25;5.55;;;10.70;68.60;;;;;;5075039;28;20111;-65
2021/12/02 10:34:29;;;;;;;11.82;4.63;;;10.70;69.00;;;;;;5075645;28;20039;-64
2021/12/02 10:37:07;;;;;;;14.80;4.63;;;10.50;69.30;;;;;;5078675;28;20031;-65
2021/12/02 10:39:32;;;;;;;13.90;4.25;;;10.40;69.90;;;;;;5083320;28;20016;-65
2021/12/02 10:42:08;;;;;;;11.20;3.70;;;10.20;70.50;;;;;;5076382;28;20035;-65
2021/12/02 10:44:36;;;;;;;10.05;2.97;;;10.10;70.90;;;;;;5079515;28;20060;-65
2021/12/02 10:47:09;;;;;;;13.23;3.50;;;9.90;71.20;;;;;;5086047;28;20027;-63
2021/12/02 10:49:45;;;;;;;12.73;3.25;;;9.70;71.20;;;;;;5077177;28;20029;-63
2021/12/02 10:52:16;;;;;;;10.93;3.28;;;9.50;71.50;;;;;;5084714;28;20036;-63
2021/12/02 10:54:46;;;;;;;12.60;3.08;;;9.40;72.20;;;;;;5081882;28;20032;-63
2021/12/02 10:57:15;;;;;;;7.03;2.47;;;9.30;73.00;;;;;;5080888;28;20026;-63
2021/12/02 10:59:50;;;;;;;15.32;2.65;;;9.10;73.40;;;;;;5076453;28;20039;-62
2021/12/02 11:02:32;;;;;;;9.43;2.17;;;9.00;73.80;;;;;;5086579;28;20028;-62
2021/12/02 11:05:10;;;;;;;9.48;2.72;;;8.90;74.40;;;;;;5076653;28;20092;-63
2021/12/02 11:07:39;;;;;;;10.68;2.75;;;8.70;75.20;;;;;;5075639;28;20024;-62
2021/12/02 11:10:15;;;;;;;8.13;2.22;;;8.60;76.00;;;;;;5083686;28;20028;-62
2021/12/02 11:12:46;;;;;;;9.90;2.00;;;8.50;76.90;;;;;;5087353;28;20028;-62
2021/12/02 11:15:13;;;;;;;7.60;1.67;;;8.30;77.50;;;;;;5083602;28;20119;-63
2021/12/02 11:17:49;;;;;;;7.78;1.50;;;8.20;78.40;;;;;;5086705;28;20020;-62
2021/12/02 11:20:28;;;;;;;6.85;1.75;;;8.20;78.70;;;;;;5079389;28;20066;-62
2021/12/02 11:22:58;;;;;;;6.85;1.58;;;8.10;78.80;;;;;;5087998;28;20115;-62
2021/12/02 11:25:24;;;;;;;4.70;1.42;;;8.00;78.90;;;;;;5087984;28;20039;-62
2021/12/02 11:27:52;;;;;;;5.15;1.30;;;8.00;79.30;;;;;;5081357;28;20236;-62
2021/12/02 11:30:22;;;;;;;7.57;1.40;;;8.00;79.20;;;;;;5073636;28;20055;-62
2021/12/02 11:32:59;;;;;;;7.50;1.27;;;8.10;79.20;;;;;;5091449;28;20116;-62
2021/12/02 11:35:44;;;;;;;5.78;1.27;;;8.40;78.70;;;;;;5080733;28;20097;-62
2021/12/02 11:38:18;;;;;;;6.10;1.38;;;8.80;77.80;;;;;;5089937;28;20059;-62
2021/12/02 11:40:52;;;;;;;4.15;1.23;;;8.90;77.40;;;;;;5090600;28;20042;-62
2021/12/02 11:43:23;;;;;;;6.10;1.65;;;8.90;77.50;;;;;;5089672;28;20016;-62
2021/12/02 11:45:50;;;;;;;3.80;1.13;;;8.90;77.80;;;;;;5088058;28;20040;-62
2021/12/02 11:48:28;;;;;;;5.93;1.38;;;8.90;78.00;;;;;;5089169;28;20058;-61
2021/12/02 11:50:57;;;;;;;5.10;1.40;;;8.90;78.00;;;;;;5089086;28;20035;-62
2021/12/02 11:53:23;;;;;;;7.03;1.52;;;9.00;78.00;;;;;;5090174;28;20016;-62
2021/12/02 11:55:54;;;;;;;5.50;1.50;;;9.00;78.20;;;;;;5091070;28;20032;-62
2021/12/02 11:58:19;;;;;;;6.53;2.30;;;9.00;78.20;;;;;;5083553;28;20036;-62
2021/12/02 12:00:46;;;;;;;9.20;2.03;;;9.00;78.40;;;;;;5079847;28;20081;-65
2021/12/02 12:03:22;;;;;;;5.13;1.75;;;8.90;78.50;;;;;;5088529;28;20364;-64
2021/12/02 12:05:59;;;;;;;5.95;2.00;;;8.80;78.80;;;;;;5088920;28;20028;-64
2021/12/02 12:08:35;;;;;;;5.15;1.88;;;8.90;79.00;;;;;;5079664;28;20511;-65
2021/12/02 12:11:28;;;;;;;4.85;1.67;;;9.00;78.70;;;;;;5089190;28;20024;-65
2021/12/02 12:14:06;;;;;;;7.47;2.20;;;9.00;79.70;;;;;;5091393;28;20025;-65
2021/12/02 12:16:35;;;;;;;6.15;2.38;;;9.00;79.90;;;;;;5087959;28;20039;-65
2021/12/02 12:19:30;;;;;;;8.40;2.25;;;9.00;79.00;;;;;;5091028;28;20487;-65
2021/12/02 12:21:56;;;;;;;117.25;96.43;;;9.00;79.30;;;;;;5088599;28;20032;-64
2021/12/02 12:24:51;;;;;;;126.68;102.43;;;9.00;79.50;;;;;;5089708;28;20036;-65
2021/12/02 12:27:21;;;;;;;35.88;30.08;;;8.90;79.90;;;;;;5087642;28;20024;-65
2021/12/02 12:30:06;;;;;;;33.65;27.65;;;8.80;81.20;;;;;;5079359;28;20119;-65
2021/12/02 12:32:48;;;;;;;7.50;6.00;;;8.60;81.30;;;;;;5087371;28;20317;-65
2021/12/02 12:36:22;;;;;;;6.85;3.03;;;8.50;81.10;;;;;;5076646;28;20036;-66
2021/12/02 12:38:28;;;;;;;4.05;1.50;;;8.40;80.60;;;;;;5086047;28;20521;-65
2021/12/02 12:41:15;;;;;;;6.10;1.10;;;8.30;80.90;;;;;;5085213;28;20475;-66
2021/12/02 12:43:54;;;;;;;2.92;0.80;;;8.30;80.60;;;;;;5075057;28;20036;-65
2021/12/02 12:46:25;;;;;;;2.78;0.80;;;8.20;79.70;;;;;;5083402;28;20066;-65
2021/12/02 12:48:53;;;;;;;3.85;0.77;;;8.10;79.60;;;;;;5081713;28;20043;-65
2021/12/02 12:51:47;;;;;;;2.55;0.70;;;8.00;79.50;;;;;;5080859;28;20059;-65
2021/12/02 12:54:20;;;;;;;2.47;0.60;;;7.90;80.30;;;;;;5085227;28;20119;-65
2021/12/02 12:56:47;;;;;;;2.63;0.60;;;8.00;79.80;;;;;;5080465;28;20044;-65
2021/12/02 12:59:15;;;;;;;1.00;0.50;;;8.00;80.00;;;;;;5076828;28;20082;-65
2021/12/02 13:01:56;;;;;;;2.10;0.63;;;8.00;80.10;;;;;;5089362;28;20036;-66
2021/12/02 13:04:24;;;;;;;2.30;0.50;;;8.20;79.90;;;;;;5075050;28;20032;-65
2021/12/02 13:07:12;;;;;;;1.00;0.50;;;8.40;79.40;;;;;;5077656;28;20507;-65
2021/12/02 13:09:46;;;;;;;2.30;0.60;;;8.50;78.50;;;;;;5078490;28;20055;-66
2021/12/02 13:12:17;;;;;;;2.72;0.80;;;8.70;78.30;;;;;;5081926;28;20542;-66
2021/12/02 13:14:43;;;;;;;;;;;9.00;77.50;;;;;;5088188;28;20032;-66
2021/12/02 13:17:35;;;;;;;2.05;0.73;;;9.20;76.60;;;;;;5086780;28;19912;-65
2021/12/02 13:20:23;;;;;;;2.33;0.52;;;9.40;76.50;;;;;;5082773;28;20032;-65
2021/12/02 13:23:16;;;;;;;3.38;0.77;;;9.50;75.50;;;;;;5088138;28;20028;-66
2021/12/02 13:26:10;;;;;;;4.25;0.90;;;9.70;74.60;;;;;;5086217;28;20414;-66
2021/12/02 13:28:43;;;;;;;2.80;0.77;;;12.40;69.60;;;;;;5085274;28;20074;-65
2021/12/02 13:31:15;;;;;;;2.50;0.90;;;15.50;60.80;;;;;;5084144;28;20032;-66
2021/12/02 13:33:53;;;;;;;2.60;0.90;;;17.50;55.60;;;;;;5084111;28;20028;-63
2021/12/02 13:36:22;;;;;;;2.50;0.90;;;19.10;50.90;;;;;;5077024;28;20566;-63
2021/12/02 13:39:01;;;;;;;3.60;1.33;;;20.30;47.40;;;;;;5073113;28;20028;-64
2021/12/02 13:41:28;;;;;;;2.22;0.90;;;21.40;44.80;;;;;;5083650;28;20032;-64
2021/12/02 13:44:01;;;;;;;3.10;0.80;;;22.50;41.70;;;;;;5088673;28;20767;-65
2021/12/02 13:46:33;;;;;;;4.38;0.90;;;22.60;39.80;;;;;;5087184;28;20036;-64
2021/12/02 13:49:01;;;;;;;2.38;0.80;;;22.50;39.90;;;;;;5081371;28;20501;-63
2021/12/02 13:54:54;;;;;;;2.42;0.80;;;22.80;40.00;;;;;;5083302;28;20058;-63
2021/12/02 13:57:48;;;;;;;2.50;0.73;;;23.60;38.50;;;;;;5085714;28;20440;-64
2021/12/02 14:00:38;;;;;;;2.72;0.63;;;21.70;39.40;;;;;;5086592;28;20081;-64
2021/12/02 14:03:16;;;;;;;3.10;0.70;;;19.90;43.40;;;;;;5083029;28;20082;-63
2021/12/02 14:05:48;;;;;;;3.33;0.60;;;19.10;44.70;;;;;;5084930;28;20184;-63
2021/12/02 14:08:20;;;;;;;3.42;0.80;;;19.00;45.50;;;;;;5081020;28;20107;-64
2021/12/02 14:10:46;;;;;;;2.70;0.80;;;19.10;45.00;;;;;;5086220;28;20031;-64
2021/12/02 14:13:18;;;;;;;3.00;0.77;;;18.00;46.90;;;;;;5080337;28;20509;-63
2021/12/02 14:15:48;;;;;;;3.33;1.10;;;17.10;49.00;;;;;;5081049;28;20040;-64
2021/12/02 14:18:19;;;;;;;3.10;1.00;;;16.30;50.10;;;;;;5078819;28;20386;-64
2021/12/02 14:20:55;;;;;;;2.95;0.90;;;15.40;51.30;;;;;;5078533;28;20028;-63
2021/12/02 14:23:30;;;;;;;3.20;0.90;;;14.60;52.60;;;;;;5086948;28;20388;-63
2021/12/02 14:26:03;;;;;;;3.33;0.73;;;14.10;53.90;;;;;;5085935;28;20031;-63
2021/12/02 14:28:45;;;;;;;3.15;0.80;;;14.40;54.40;;;;;;5084720;28;20043;-64
2021/12/02 14:31:25;;;;;;;2.65;0.70;;;16.40;50.50;;;;;;5080617;28;20077;-63
2021/12/02 14:33:54;;;;;;;3.42;0.98;;;17.70;47.30;;;;;;5082793;28;20093;-64
2021/12/02 14:36:22;;;;;;;3.25;0.80;;;17.40;46.00;;;;;;5080751;28;20071;-63
2021/12/02 14:39:03;;;;;;;4.15;1.25;;;18.10;46.30;;;;;;5084915;28;20091;-64
2021/12/02 14:41:36;;;;;;;4.57;1.10;;;18.60;45.20;;;;;;5082605;28;20044;-64
2021/12/02 14:44:11;;;;;;;5.57;1.65;;;19.10;44.00;;;;;;5084838;28;20032;-64
2021/12/02 14:46:41;;;;;;;4.28;1.15;;;19.30;42.60;;;;;;5082234;28;20036;-63
2021/12/02 14:49:06;;;;;;;2.88;0.90;;;18.00;43.60;;;;;;5080943;28;20020;-63
2021/12/02 14:51:58;;;;;;;6.50;1.38;;;16.40;47.00;;;;;;5081655;28;20056;-63
2021/12/02 14:54:38;;;;;;;3.92;1.08;;;15.10;50.10;;;;;;5082181;28;20024;-63
2021/12/02 14:57:21;;;;;;;5.07;1.25;;;14.00;52.70;;;;;;5081761;28;20020;-63
2021/12/02 14:59:59;;;;;;;3.10;1.20;;;13.10;55.20;;;;;;5073417;28;20028;-63
2021/12/02 15:02:31;;;;;;;5.13;1.20;;;12.30;57.30;;;;;;5077717;28;20024;-63
2021/12/02 15:05:03;;;;;;;5.57;1.50;;;11.80;59.10;;;;;;5088869;28;20406;-63
2021/12/02 15:07:35;;;;;;;5.32;1.20;;;11.30;60.50;;;;;;5079938;28;20384;-63
2021/12/02 15:10:18;;;;;;;4.55;1.20;;;11.00;61.60;;;;;;5087613;28;20032;-62
2021/12/02 15:12:44;;;;;;;7.43;1.35;;;10.70;62.70;;;;;;5085496;28;20098;-62
2021/12/02 15:15:13;;;;;;;4.35;1.27;;;10.40;63.70;;;;;;5085403;28;20040;-63
2021/12/02 15:17:44;;;;;;;7.25;1.58;;;10.20;64.60;;;;;;5087319;28;20029;-62
2021/12/02 15:20:28;;;;;;;12.48;9.13;;;10.30;65.30;;;;;;5079814;28;20078;-63
2021/12/02 15:22:57;;;;;;;12.30;7.25;;;10.60;64.80;;;;;;5088490;28;20050;-63
2021/12/02 15:25:36;;;;;;;4.00;1.75;;;10.90;64.60;;;;;;5081765;28;20032;-62
2021/12/02 15:28:12;;;;;;;4.07;1.35;;;10.90;64.90;;;;;;5084155;28;20103;-62
2021/12/02 15:30:57;;;;;;;5.93;1.70;;;10.70;65.60;;;;;;5088354;28;20024;-63
2021/12/02 15:33:27;;;;;;;4.80;1.58;;;10.40;66.40;;;;;;5081129;28;20055;-62
2021/12/02 15:35:54;;;;;;;3.40;1.50;;;10.00;67.30;;;;;;5086634;28;20559;-62
2021/12/02 15:38:20;;;;;;;4.70;1.70;;;9.80;67.90;;;;;;5090218;28;20028;-63
2021/12/02 15:40:47;;;;;;;7.78;4.10;;;9.50;68.70;;;;;;5086338;28;20384;-62
2021/12/02 15:43:18;;;;;;;8.95;2.30;;;9.30;69.20;;;;;;5084883;28;20020;-63
2021/12/02 15:45:44;;;;;;;5.60;2.00;;;9.10;69.60;;;;;;5086761;28;20561;-63
2021/12/02 15:48:11;;;;;;;7.45;1.80;;;8.90;70.10;;;;;;5087491;28;20024;-62
2021/12/02 15:50:37;;;;;;;4.68;1.80;;;8.70;70.40;;;;;;5080622;28;20040;-63
2021/12/02 15:53:07;;;;;;;6.85;2.00;;;8.50;70.90;;;;;;5092090;28;20024;-63
2021/12/02 15:55:36;;;;;;;8.38;2.17;;;8.30;71.30;;;;;;5083067;28;20040;-63
2021/12/02 15:58:04;;;;;;;5.22;1.73;;;8.20;71.80;;;;;;5085807;28;20347;-63
2021/12/02 16:00:30;;;;;;;5.82;2.10;;;8.10;72.30;;;;;;5085058;28;20114;-63
2021/12/02 16:02:58;;;;;;;5.88;2.80;;;7.90;72.70;;;;;;5085451;28;20024;-63
2021/12/02 16:05:28;;;;;;;8.80;3.33;;;7.80;73.00;;;;;;5088932;28;20394;-63
2021/12/02 16:07:58;;;;;;;8.67;3.77;;;7.70;73.50;;;;;;5087368;28;20035;-63
2021/12/02 16:10:41;;;;;;;11.23;4.28;;;7.60;73.80;;;;;;5087051;28;20449;-63
2021/12/02 16:13:07;;;;;;;8.00;3.90;;;7.50;74.10;;;;;;5085682;28;20515;-63
2021/12/02 16:15:33;;;;;;;5.85;3.35;;;7.30;74.30;;;;;;5085327;28;20032;-63
2021/12/02 16:17:59;;;;;;;6.45;3.55;;;7.30;74.70;;;;;;5086619;28;20499;-63
2021/12/02 16:20:25;;;;;;;9.07;3.47;;;7.10;75.10;;;;;;5086021;28;20043;-63
2021/12/02 16:22:51;;;;;;;10.30;4.25;;;7.00;75.40;;;;;;5091768;28;20039;-64
2021/12/02 16:25:17;;;;;;;11.65;6.05;;;6.90;75.70;;;;;;5082589;28;20444;-64
2021/12/02 16:27:44;;;;;;;10.32;5.20;;;6.70;76.10;;;;;;5086460;28;20016;-63
2021/12/02 16:30:12;;;;;;;10.32;4.13;;;6.60;76.30;;;;;;5086588;28;20103;-63
2021/12/02 16:32:39;;;;;;;7.38;4.25;;;6.50;76.70;;;;;;5082919;28;20031;-63
2021/12/02 16:35:07;;;;;;;7.82;3.70;;;6.40;76.90;;;;;;5092227;28;20035;-63
2021/12/02 16:37:33;;;;;;;6.57;3.60;;;6.40;77.00;;;;;;5082571;28;20043;-63
2021/12/02 16:40:08;;;;;;;10.13;4.18;;;6.30;77.10;;;;;;5086305;28;20028;-63
2021/12/02 16:42:37;;;;;;;13.25;6.88;;;6.20;77.30;;;;;;5083473;28;20057;-63
2021/12/02 16:45:03;;;;;;;9.48;4.10;;;6.10;77.90;;;;;;5087077;28;20678;-63
2021/12/02 16:47:29;;;;;;;9.68;4.93;;;6.00;78.20;;;;;;5088865;28;20577;-64
2021/12/02 16:49:55;;;;;;;8.13;4.40;;;5.90;78.40;;;;;;5090406;28;20099;-63
2021/12/02 16:52:21;;;;;;;9.43;5.05;;;5.80;78.50;;;;;;5088081;28;20437;-64
2021/12/02 16:54:47;;;;;;;10.13;6.45;;;5.80;78.70;;;;;;5087780;28;20060;-63
2021/12/02 16:57:13;;;;;;;12.57;5.63;;;5.80;78.80;;;;;;5090504;28;20035;-63
2021/12/02 16:59:39;;;;;;;9.98;5.30;;;5.70;78.70;;;;;;5088802;28;20468;-63
2021/12/02 17:05:27;;;;;;;9.15;4.45;;;5.60;78.60;;;;;;5082327;28;20055;-62
2021/12/02 17:07:53;;;;;;;9.70;5.38;;;5.50;78.50;;;;;;5085055;28;20032;-62
2021/12/02 17:10:25;;;;;;;8.68;4.93;;;5.40;78.40;;;;;;5083459;28;20043;-62
2021/12/02 17:12:55;;;;;;;10.00;5.20;;;5.40;78.40;;;;;;5087068;28;20032;-64
2021/12/02 17:15:22;;;;;;;9.38;4.47;;;5.30;78.60;;;;;;5078762;28;20036;-62
2021/12/02 17:17:54;;;;;;;8.63;3.40;;;5.20;78.80;;;;;;5085780;28;20024;-62
2021/12/02 17:20:24;;;;;;;7.60;4.03;;;5.20;78.90;;;;;;5086624;28;20097;-62
2021/12/02 17:22:50;;;;;;;7.35;3.88;;;5.10;78.80;;;;;;5086792;28;20055;-62
2021/12/02 17:25:17;;;;;;;8.30;4.53;;;5.00;78.80;;;;;;5078487;28;20028;-62
2021/12/02 17:27:43;;;;;;;8.75;4.50;;;5.00;78.90;;;;;;5084255;28;20088;-62
2021/12/02 17:30:11;;;;;;;10.77;4.63;;;5.00;79.00;;;;;;5085217;28;20036;-61
2021/12/02 17:32:41;;;;;;;12.38;5.10;;;4.90;79.20;;;;;;5083639;28;20063;-62
2021/12/02 17:35:08;;;;;;;9.50;6.10;;;4.90;79.40;;;;;;5086744;28;20430;-62
2021/12/02 17:37:38;;;;;;;9.13;5.10;;;4.80;79.30;;;;;;5100785;28;20489;-62
2021/12/02 17:40:15;;;;;;;9.93;5.68;;;4.80;79.20;;;;;;5067215;28;20033;-62
2021/12/02 17:42:43;;;;;;;8.68;5.00;;;4.70;79.30;;;;;;5085317;28;20064;-62
2021/12/02 17:45:09;;;;;;;7.70;4.50;;;4.70;79.40;;;;;;5093086;28;20059;-62
2021/12/02 17:47:40;;;;;;;8.05;4.85;;;4.70;79.50;;;;;;5077810;28;20202;-62
2021/12/02 17:50:13;;;;;;;8.57;4.45;;;4.60;79.60;;;;;;5087149;28;20031;-61
2021/12/02 17:52:41;;;;;;;10.32;5.25;;;4.60;79.70;;;;;;5088839;28;20047;-62
2021/12/02 17:55:08;;;;;;;10.32;5.15;;;4.50;79.50;;;;;;5083817;28;20028;-61
2021/12/02 17:57:35;;;;;;;8.85;4.53;;;4.50;79.80;;;;;;5083582;28;20376;-62
2021/12/02 18:00:01;;;;;;;10.48;4.90;;;4.40;79.80;;;;;;5082833;28;20146;-61
2021/12/02 18:02:26;;;;;;;8.23;4.00;;;4.40;79.80;;;;;;5087142;28;20983;-60
2021/12/02 18:04:53;;;;;;;12.10;4.38;;;4.40;79.80;;;;;;5079373;28;20028;-63
2021/12/02 18:07:19;;;;;;;8.68;4.00;;;4.30;79.70;;;;;;5088263;28;20391;-63
2021/12/02 18:09:45;;;;;;;7.35;4.18;;;4.30;79.80;;;;;;5084003;28;20080;-62
2021/12/02 18:12:12;;;;;;;10.70;4.10;;;4.20;79.90;;;;;;5086515;28;20107;-62
2021/12/02 18:14:39;;;;;;;7.30;3.83;;;4.20;79.90;;;;;;5077839;28;20020;-62
2021/12/02 18:17:06;;;;;;;13.07;3.85;;;4.20;79.90;;;;;;5091007;28;20028;-62
2021/12/02 18:19:32;;;;;;;8.25;4.53;;;4.10;79.70;;;;;;5076932;28;20036;-62
2021/12/02 18:21:58;;;;;;;7.97;4.15;;;4.10;79.80;;;;;;5082953;28;20050;-62
2021/12/02 18:24:24;;;;;;;6.65;3.95;;;4.00;79.80;;;;;;5085041;28;20136;-62
2021/12/02 18:26:50;;;;;;;16.70;6.55;;;4.00;79.90;;;;;;5082568;28;20444;-63
2021/12/02 18:29:16;;;;;;;9.20;4.72;;;4.00;80.10;;;;;;5073155;28;20029;-63
2021/12/02 18:31:42;;;;;;;9.73;5.10;;;3.90;80.90;;;;;;5084031;28;20027;-64
2021/12/02 18:34:08;;;;;;;9.50;5.53;;;3.90;80.20;;;;;;5078550;28;20082;-61
2021/12/02 18:36:35;;;;;;;10.68;5.50;;;3.90;80.20;;;;;;5076521;28;20044;-62
2021/12/02 18:39:03;;;;;;;10.15;6.00;;;3.90;80.30;;;;;;5085969;28;20032;-62
2021/12/02 18:41:30;;;;;;;15.52;8.90;;;3.80;80.30;;;;;;5083954;28;20023;-62
2021/12/02 18:43:57;;;;;;;24.20;13.13;;;3.80;80.20;;;;;;5090344;28;20012;-62
2021/12/02 18:46:24;;;;;;;23.92;11.82;;;3.80;80.20;;;;;;5084897;28;20179;-62
2021/12/02 18:48:51;;;;;;;23.08;10.10;;;3.70;80.10;;;;;;5086651;28;20031;-62
2021/12/02 18:51:18;;;;;;;25.90;12.98;;;3.60;79.90;;;;;;5084340;28;20024;-63
2021/12/02 18:53:45;;;;;;;22.15;11.52;;;3.60;80.00;;;;;;5086829;28;20056;-62
2021/12/02 18:56:11;;;;;;;22.65;11.65;;;3.50;80.00;;;;;;5087190;28;20082;-62
2021/12/02 18:58:36;;;;;;;21.90;11.68;;;3.50;80.30;;;;;;5082225;28;20021;-64
2021/12/02 19:01:03;;;;;;;22.25;12.27;;;3.50;80.60;;;;;;5075447;28;20078;-64
2021/12/02 19:03:29;;;;;;;28.17;14.07;;;3.50;80.70;;;;;;5080432;28;20045;-64
2021/12/02 19:06:05;;;;;;;29.70;15.55;;;3.50;80.80;;;;;;5082090;28;20031;-64
2021/12/02 19:08:52;;;;;;;29.25;14.68;;;3.50;80.80;;;;;;5075134;28;20028;-64
2021/12/02 19:27:44;;;;;;;21.90;12.68;;;3.30;81.00;;;;;;5078731;28;20075;-64
2021/12/02 19:30:12;;;;;;;18.75;11.98;;;3.30;81.20;;;;;;5083039;28;20553;-65
2021/12/02 19:32:38;;;;;;;17.83;11.02;;;3.20;81.20;;;;;;5079493;28;20024;-65
2021/12/02 19:35:07;;;;;;;18.30;11.75;;;3.20;81.20;;;;;;5085958;28;20085;-64
2021/12/02 19:37:36;;;;;;;18.40;10.57;;;3.20;81.20;;;;;;5081336;28;20089;-65
2021/12/02 19:40:06;;;;;;;15.82;10.65;;;3.20;81.30;;;;;;5084127;28;20111;-65
2021/12/02 19:42:33;;;;;;;25.40;13.33;;;3.20;81.30;;;;;;5077474;28;20040;-65
2021/12/02 19:45:00;;;;;;;17.73;10.63;;;3.10;81.20;;;;;;5084300;28;20829;-65
2021/12/02 19:47:29;;;;;;;19.83;12.70;;;3.10;81.20;;;;;;5080558;28;20499;-65
2021/12/02 19:49:55;;;;;;;22.23;13.27;;;3.10;81.30;;;;;;5077255;28;20077;-64
2021/12/02 19:52:21;;;;;;;18.85;12.35;;;3.00;81.40;;;;;;5077483;28;20035;-64
2021/12/02 19:54:48;;;;;;;19.65;11.70;;;3.00;81.40;;;;;;5077573;28;20029;-65
2021/12/02 19:57:18;;;;;;;19.30;12.75;;;3.00;81.40;;;;;;5086967;28;20021;-65
2021/12/02 19:59:44;;;;;;;25.60;15.68;;;3.00;81.40;;;;;;5078779;28;20116;-65
2021/12/02 20:02:10;;;;;;;21.85;13.75;;;2.90;81.40;;;;;;5090224;28;20028;-65
2021/12/02 20:04:36;;;;;;;21.35;12.73;;;2.90;81.50;;;;;;5081904;28;20566;-64
2021/12/02 20:07:04;;;;;;;19.98;12.05;;;2.90;81.70;;;;;;5080287;28;20092;-65
2021/12/02 20:09:30;;;;;;;18.60;11.48;;;2.80;81.70;;;;;;5075301;28;20036;-65
2021/12/02 20:11:56;;;;;;;25.50;11.80;;;2.80;81.70;;;;;;5081198;28;20016;-65
2021/12/02 20:14:26;;;;;;;19.88;11.23;;;2.80;81.80;;;;;;5074771;28;20036;-64
2021/12/02 20:16:57;;;;;;;17.73;10.25;;;2.80;81.80;;;;;;5087126;28;20131;-65
2021/12/02 20:19:28;;;;;;;;;;;2.80;81.70;;;;;;5084352;28;20089;-65
2021/12/02 20:21:55;;;;;;;17.48;10.18;;;2.80;82.70;;;;;;5085303;28;20429;-65